sensor_id;sensor_type;location;lat;lon;timestamp;pressure;altitude;pressure_sealevel;temperature;humidity
84122;BME280;74217;51.106;17.084;2024-03-29T00:00:20;98826.75;;;8.63;60.67
84122;BME280;74217;51.106;17.084;2024-03-29T00:03:24;98834.75;;;8.61;61.09
84122;BME280;74217;51.106;17.084;2024-03-29T00:06:10;98849.94;;;8.55;60.91
84122;BME280;74217;51.106;17.084;2024-03-29T00:08:54;98850.78;;;8.55;60.54
84122;BME280;74217;51.106;17.084;2024-03-29T00:11:39;98866.09;;;8.47;61.44
84122;BME280;74217;51.106;17.084;2024-03-29T00:18:04;98861.75;;;8.32;60.91
84122;BME280;74217;51.106;17.084;2024-03-29T00:20:49;98875.00;;;8.29;61.57
84122;BME280;74217;51.106;17.084;2024-03-29T00:23:34;98882.63;;;8.34;60.62
84122;BME280;74217;51.106;17.084;2024-03-29T00:26:18;98890.56;;;8.32;61.36
84122;BME280;74217;51.106;17.084;2024-03-29T00:29:03;98889.97;;;8.27;61.03
84122;BME280;74217;51.106;17.084;2024-03-29T00:31:47;98902.16;;;8.28;60.67
84122;BME280;74217;51.106;17.084;2024-03-29T00:34:32;98904.34;;;8.20;60.83
84122;BME280;74217;51.106;17.084;2024-03-29T00:37:17;98915.09;;;8.16;61.08
84122;BME280;74217;51.106;17.084;2024-03-29T00:40:02;98927.94;;;8.20;61.16
84122;BME280;74217;51.106;17.084;2024-03-29T00:42:47;98933.25;;;8.19;61.33
84122;BME280;74217;51.106;17.084;2024-03-29T00:45:32;98936.41;;;8.10;61.16
84122;BME280;74217;51.106;17.084;2024-03-29T00:48:17;98943.84;;;8.02;61.76
84122;BME280;74217;51.106;17.084;2024-03-29T00:51:04;98952.69;;;7.99;62.05
84122;BME280;74217;51.106;17.084;2024-03-29T00:53:49;98953.63;;;7.83;62.21
84122;BME280;74217;51.106;17.084;2024-03-29T00:56:33;98967.97;;;7.91;61.90
84122;BME280;74217;51.106;17.084;2024-03-29T00:59:18;98974.41;;;8.01;61.29
84122;BME280;74217;51.106;17.084;2024-03-29T01:02:03;98977.97;;;8.00;61.41
84122;BME280;74217;51.106;17.084;2024-03-29T01:04:47;98992.22;;;7.95;61.46
84122;BME280;74217;51.106;17.084;2024-03-29T01:07:33;98994.69;;;7.98;61.20
84122;BME280;74217;51.106;17.084;2024-03-29T01:10:17;99005.56;;;7.90;61.81
84122;BME280;74217;51.106;17.084;2024-03-29T01:13:02;99007.41;;;7.88;61.37
84122;BME280;74217;51.106;17.084;2024-03-29T01:15:47;99006.66;;;7.86;61.84
84122;BME280;74217;51.106;17.084;2024-03-29T01:18:32;99013.59;;;7.87;61.61
84122;BME280;74217;51.106;17.084;2024-03-29T01:21:17;99012.59;;;7.90;61.20
84122;BME280;74217;51.106;17.084;2024-03-29T01:24:03;99004.38;;;7.80;61.29
84122;BME280;74217;51.106;17.084;2024-03-29T01:26:48;99020.53;;;7.88;61.25
84122;BME280;74217;51.106;17.084;2024-03-29T01:29:33;99028.63;;;7.84;61.65
84122;BME280;74217;51.106;17.084;2024-03-29T01:32:18;99027.06;;;7.80;62.00
84122;BME280;74217;51.106;17.084;2024-03-29T01:35:03;99033.00;;;7.83;61.23
84122;BME280;74217;51.106;17.084;2024-03-29T01:37:48;99032.31;;;7.80;61.37
84122;BME280;74217;51.106;17.084;2024-03-29T01:40:33;99036.19;;;7.73;62.34
84122;BME280;74217;51.106;17.084;2024-03-29T01:43:18;99043.03;;;7.75;61.78
84122;BME280;74217;51.106;17.084;2024-03-29T01:46:04;99036.19;;;7.73;62.17
84122;BME280;74217;51.106;17.084;2024-03-29T01:48:52;99023.16;;;7.71;62.58
84122;BME280;74217;51.106;17.084;2024-03-29T01:51:37;99031.56;;;7.61;62.57
84122;BME280;74217;51.106;17.084;2024-03-29T01:54:25;99020.94;;;7.64;62.95
84122;BME280;74217;51.106;17.084;2024-03-29T01:57:11;99028.09;;;7.60;62.03
84122;BME280;74217;51.106;17.084;2024-03-29T01:59:57;99033.03;;;7.66;62.33
84122;BME280;74217;51.106;17.084;2024-03-29T02:02:42;99032.19;;;7.66;62.23
84122;BME280;74217;51.106;17.084;2024-03-29T02:05:27;99031.41;;;7.64;62.16
84122;BME280;74217;51.106;17.084;2024-03-29T02:08:13;99021.50;;;7.53;62.54
84122;BME280;74217;51.106;17.084;2024-03-29T02:10:58;99029.97;;;7.58;62.30
84122;BME280;74217;51.106;17.084;2024-03-29T02:13:44;99034.44;;;7.56;62.06
84122;BME280;74217;51.106;17.084;2024-03-29T02:16:29;99031.66;;;7.59;62.76
84122;BME280;74217;51.106;17.084;2024-03-29T02:19:15;99024.09;;;7.53;62.94
84122;BME280;74217;51.106;17.084;2024-03-29T02:22:00;99032.44;;;7.44;62.79
84122;BME280;74217;51.106;17.084;2024-03-29T02:24:46;99038.81;;;7.56;63.00
84122;BME280;74217;51.106;17.084;2024-03-29T02:27:30;99041.22;;;7.43;63.70
84122;BME280;74217;51.106;17.084;2024-03-29T02:30:16;99046.72;;;7.54;62.00
84122;BME280;74217;51.106;17.084;2024-03-29T02:33:01;99057.53;;;7.48;62.67
84122;BME280;74217;51.106;17.084;2024-03-29T02:35:48;99062.91;;;7.45;62.44
84122;BME280;74217;51.106;17.084;2024-03-29T02:38:32;99070.31;;;7.37;63.63
84122;BME280;74217;51.106;17.084;2024-03-29T02:41:17;99079.59;;;7.26;63.32
84122;BME280;74217;51.106;17.084;2024-03-29T02:44:01;99072.59;;;7.26;63.89
84122;BME280;74217;51.106;17.084;2024-03-29T02:46:46;99073.53;;;7.25;63.81
84122;BME280;74217;51.106;17.084;2024-03-29T02:49:31;99078.47;;;7.31;63.51
84122;BME280;74217;51.106;17.084;2024-03-29T02:52:16;99079.69;;;7.24;63.90
84122;BME280;74217;51.106;17.084;2024-03-29T02:55:01;99087.97;;;7.15;64.18
84122;BME280;74217;51.106;17.084;2024-03-29T02:57:46;99075.88;;;7.13;64.11
84122;BME280;74217;51.106;17.084;2024-03-29T03:00:30;99077.75;;;7.11;63.93
84122;BME280;74217;51.106;17.084;2024-03-29T03:03:16;99086.56;;;7.08;64.42
84122;BME280;74217;51.106;17.084;2024-03-29T03:06:02;99080.66;;;7.05;64.29
84122;BME280;74217;51.106;17.084;2024-03-29T03:08:50;99085.94;;;7.03;64.48
84122;BME280;74217;51.106;17.084;2024-03-29T03:11:53;99083.53;;;6.99;65.23
84122;BME280;74217;51.106;17.084;2024-03-29T03:14:38;99090.19;;;6.87;65.86
84122;BME280;74217;51.106;17.084;2024-03-29T03:17:43;99087.19;;;6.78;66.00
84122;BME280;74217;51.106;17.084;2024-03-29T03:20:28;99102.00;;;6.77;65.54
84122;BME280;74217;51.106;17.084;2024-03-29T03:23:15;99107.38;;;6.74;65.63
84122;BME280;74217;51.106;17.084;2024-03-29T03:26:02;99102.75;;;6.79;65.35
84122;BME280;74217;51.106;17.084;2024-03-29T03:28:49;99096.94;;;6.74;66.20
84122;BME280;74217;51.106;17.084;2024-03-29T03:31:34;99102.06;;;6.76;65.09
84122;BME280;74217;51.106;17.084;2024-03-29T03:34:19;99091.19;;;6.66;66.20
84122;BME280;74217;51.106;17.084;2024-03-29T03:37:03;99094.72;;;6.65;66.58
84122;BME280;74217;51.106;17.084;2024-03-29T03:39:48;99086.13;;;6.63;65.86
84122;BME280;74217;51.106;17.084;2024-03-29T03:42:32;99085.47;;;6.58;66.65
84122;BME280;74217;51.106;17.084;2024-03-29T03:45:17;99091.75;;;6.54;66.25
84122;BME280;74217;51.106;17.084;2024-03-29T03:48:07;99093.47;;;6.55;65.96
84122;BME280;74217;51.106;17.084;2024-03-29T03:50:51;99089.88;;;6.58;65.28
84122;BME280;74217;51.106;17.084;2024-03-29T03:53:36;99093.47;;;6.55;65.75
84122;BME280;74217;51.106;17.084;2024-03-29T03:56:20;99100.69;;;6.50;66.06
84122;BME280;74217;51.106;17.084;2024-03-29T03:59:05;99098.13;;;6.49;66.30
84122;BME280;74217;51.106;17.084;2024-03-29T04:04:39;99121.22;;;6.39;66.38
84122;BME280;74217;51.106;17.084;2024-03-29T04:07:25;99131.00;;;6.34;66.37
84122;BME280;74217;51.106;17.084;2024-03-29T04:10:10;99132.84;;;6.32;66.12
84122;BME280;74217;51.106;17.084;2024-03-29T04:12:54;99136.78;;;6.22;66.67
84122;BME280;74217;51.106;17.084;2024-03-29T04:15:40;99141.16;;;6.22;66.92
84122;BME280;74217;51.106;17.084;2024-03-29T04:18:24;99135.84;;;6.23;66.63
84122;BME280;74217;51.106;17.084;2024-03-29T04:21:08;99128.44;;;6.14;67.56
84122;BME280;74217;51.106;17.084;2024-03-29T04:23:53;99119.97;;;6.09;67.20
84122;BME280;74217;51.106;17.084;2024-03-29T04:26:39;99131.25;;;6.10;67.54
84122;BME280;74217;51.106;17.084;2024-03-29T04:29:23;99149.47;;;6.11;67.09
84122;BME280;74217;51.106;17.084;2024-03-29T04:32:08;99140.84;;;6.09;67.25
84122;BME280;74217;51.106;17.084;2024-03-29T04:34:53;99141.25;;;6.00;67.40
84122;BME280;74217;51.106;17.084;2024-03-29T04:37:38;99143.22;;;5.95;67.45
84122;BME280;74217;51.106;17.084;2024-03-29T04:40:23;99161.53;;;5.94;68.15
84122;BME280;74217;51.106;17.084;2024-03-29T04:43:07;99162.59;;;5.90;68.52
84122;BME280;74217;51.106;17.084;2024-03-29T04:46:13;99164.63;;;5.83;68.80
84122;BME280;74217;51.106;17.084;2024-03-29T04:48:58;99169.84;;;5.83;68.57
84122;BME280;74217;51.106;17.084;2024-03-29T04:51:43;99172.03;;;5.72;68.69
84122;BME280;74217;51.106;17.084;2024-03-29T04:54:28;99175.63;;;5.70;68.95
84122;BME280;74217;51.106;17.084;2024-03-29T04:57:12;99172.28;;;5.66;69.12
84122;BME280;74217;51.106;17.084;2024-03-29T04:59:57;99179.34;;;5.64;69.69
84122;BME280;74217;51.106;17.084;2024-03-29T05:02:43;99163.94;;;5.58;69.47
84122;BME280;74217;51.106;17.084;2024-03-29T05:05:27;99172.63;;;5.59;69.69
84122;BME280;74217;51.106;17.084;2024-03-29T05:08:12;99176.94;;;5.60;69.32
84122;BME280;74217;51.106;17.084;2024-03-29T05:10:57;99177.03;;;5.57;69.28
84122;BME280;74217;51.106;17.084;2024-03-29T05:13:41;99176.06;;;5.59;69.98
84122;BME280;74217;51.106;17.084;2024-03-29T05:16:26;99181.28;;;5.59;69.83
84122;BME280;74217;51.106;17.084;2024-03-29T05:19:11;99174.31;;;5.60;69.08
84122;BME280;74217;51.106;17.084;2024-03-29T05:21:57;99173.41;;;5.61;69.71
84122;BME280;74217;51.106;17.084;2024-03-29T05:24:42;99182.56;;;5.71;68.87
84122;BME280;74217;51.106;17.084;2024-03-29T05:27:27;99182.38;;;5.75;69.21
84122;BME280;74217;51.106;17.084;2024-03-29T05:30:11;99174.19;;;5.83;67.70
84122;BME280;74217;51.106;17.084;2024-03-29T05:32:57;99179.34;;;5.84;68.86
84122;BME280;74217;51.106;17.084;2024-03-29T05:35:42;99171.22;;;5.92;68.50
84122;BME280;74217;51.106;17.084;2024-03-29T05:38:27;99179.34;;;6.04;68.76
84122;BME280;74217;51.106;17.084;2024-03-29T05:41:11;99185.63;;;6.20;67.11
84122;BME280;74217;51.106;17.084;2024-03-29T05:43:56;99183.03;;;6.39;67.72
84122;BME280;74217;51.106;17.084;2024-03-29T05:46:41;99167.47;;;6.56;66.09
84122;BME280;74217;51.106;17.084;2024-03-29T05:49:26;99166.88;;;6.69;66.58
84122;BME280;74217;51.106;17.084;2024-03-29T05:52:10;99175.34;;;6.93;63.53
84122;BME280;74217;51.106;17.084;2024-03-29T05:54:58;99181.78;;;7.04;65.27
84122;BME280;74217;51.106;17.084;2024-03-29T05:57:48;99179.22;;;7.21;64.10
84122;BME280;74217;51.106;17.084;2024-03-29T06:00:34;99193.72;;;7.28;63.96
84122;BME280;74217;51.106;17.084;2024-03-29T06:03:19;99175.59;;;7.42;63.84
84122;BME280;74217;51.106;17.084;2024-03-29T06:06:03;99179.16;;;7.58;62.22
84122;BME280;74217;51.106;17.084;2024-03-29T06:08:48;99177.94;;;7.65;62.37
84122;BME280;74217;51.106;17.084;2024-03-29T06:11:33;99177.66;;;7.88;60.84
84122;BME280;74217;51.106;17.084;2024-03-29T06:14:18;99177.16;;;7.97;61.14
84122;BME280;74217;51.106;17.084;2024-03-29T06:17:22;99174.66;;;7.96;59.50
84122;BME280;74217;51.106;17.084;2024-03-29T06:20:07;99181.47;;;8.15;60.69
84122;BME280;74217;51.106;17.084;2024-03-29T06:22:52;99187.56;;;8.33;60.43
84122;BME280;74217;51.106;17.084;2024-03-29T06:25:38;99191.94;;;8.49;59.89
84122;BME280;74217;51.106;17.084;2024-03-29T06:28:23;99189.53;;;8.62;58.80
84122;BME280;74217;51.106;17.084;2024-03-29T06:31:08;99192.03;;;8.80;58.28
84122;BME280;74217;51.106;17.084;2024-03-29T06:33:53;99186.13;;;8.92;58.92
84122;BME280;74217;51.106;17.084;2024-03-29T06:36:38;99185.81;;;9.14;56.18
84122;BME280;74217;51.106;17.084;2024-03-29T06:39:23;99179.84;;;9.10;58.74
84122;BME280;74217;51.106;17.084;2024-03-29T06:42:09;99179.34;;;9.19;55.80
84122;BME280;74217;51.106;17.084;2024-03-29T06:44:55;99170.00;;;9.29;57.26
84122;BME280;74217;51.106;17.084;2024-03-29T06:47:39;99167.84;;;9.37;57.46
84122;BME280;74217;51.106;17.084;2024-03-29T06:50:24;99171.81;;;9.44;56.93
84122;BME280;74217;51.106;17.084;2024-03-29T06:53:09;99181.75;;;9.53;55.80
84122;BME280;74217;51.106;17.084;2024-03-29T06:55:55;99186.31;;;9.65;57.35
84122;BME280;74217;51.106;17.084;2024-03-29T06:58:40;99184.13;;;9.73;55.53
84122;BME280;74217;51.106;17.084;2024-03-29T07:01:24;99188.75;;;9.84;53.72
84122;BME280;74217;51.106;17.084;2024-03-29T07:04:09;99197.75;;;9.80;56.38
84122;BME280;74217;51.106;17.084;2024-03-29T07:06:54;99207.75;;;9.89;56.08
84122;BME280;74217;51.106;17.084;2024-03-29T07:09:39;99203.00;;;9.95;56.43
84122;BME280;74217;51.106;17.084;2024-03-29T07:12:24;99193.66;;;10.05;55.11
84122;BME280;74217;51.106;17.084;2024-03-29T07:15:09;99212.59;;;10.10;56.33
84122;BME280;74217;51.106;17.084;2024-03-29T07:17:53;99209.44;;;10.19;53.75
84122;BME280;74217;51.106;17.084;2024-03-29T07:20:38;99215.63;;;10.18;55.72
84122;BME280;74217;51.106;17.084;2024-03-29T07:23:22;99228.22;;;10.27;54.43
84122;BME280;74217;51.106;17.084;2024-03-29T07:26:07;99217.44;;;10.32;53.81
84122;BME280;74217;51.106;17.084;2024-03-29T07:28:51;99222.09;;;10.42;53.60
84122;BME280;74217;51.106;17.084;2024-03-29T07:31:36;99228.44;;;10.38;53.76
84122;BME280;74217;51.106;17.084;2024-03-29T07:34:21;99232.59;;;10.42;53.35
84122;BME280;74217;51.106;17.084;2024-03-29T07:37:05;99235.13;;;10.44;53.42
84122;BME280;74217;51.106;17.084;2024-03-29T07:39:50;99238.41;;;10.47;52.06
84122;BME280;74217;51.106;17.084;2024-03-29T07:42:34;99238.78;;;10.41;54.03
84122;BME280;74217;51.106;17.084;2024-03-29T07:45:20;99226.88;;;10.50;52.73
84122;BME280;74217;51.106;17.084;2024-03-29T07:48:04;99232.69;;;10.55;52.72
84122;BME280;74217;51.106;17.084;2024-03-29T07:50:50;99230.34;;;10.64;51.18
84122;BME280;74217;51.106;17.084;2024-03-29T07:53:34;99231.47;;;10.60;52.36
84122;BME280;74217;51.106;17.084;2024-03-29T07:56:19;99228.84;;;10.60;50.72
84122;BME280;74217;51.106;17.084;2024-03-29T07:59:05;99232.34;;;10.75;50.85
84122;BME280;74217;51.106;17.084;2024-03-29T08:01:50;99251.41;;;10.78;49.90
84122;BME280;74217;51.106;17.084;2024-03-29T08:04:36;99248.25;;;10.87;52.01
84122;BME280;74217;51.106;17.084;2024-03-29T08:07:22;99258.66;;;11.02;50.50
84122;BME280;74217;51.106;17.084;2024-03-29T08:10:07;99262.16;;;11.17;48.39
84122;BME280;74217;51.106;17.084;2024-03-29T08:12:51;99262.94;;;11.19;49.43
84122;BME280;74217;51.106;17.084;2024-03-29T08:15:36;99265.34;;;11.22;49.08
84122;BME280;74217;51.106;17.084;2024-03-29T08:18:20;99268.00;;;11.36;47.01
84122;BME280;74217;51.106;17.084;2024-03-29T08:21:05;99260.44;;;11.44;48.73
84122;BME280;74217;51.106;17.084;2024-03-29T08:23:55;99275.22;;;11.46;47.41
84122;BME280;74217;51.106;17.084;2024-03-29T08:26:40;99273.97;;;11.52;48.72
84122;BME280;74217;51.106;17.084;2024-03-29T08:29:28;99273.97;;;11.52;48.86
84122;BME280;74217;51.106;17.084;2024-03-29T08:32:12;99271.69;;;11.60;47.54
84122;BME280;74217;51.106;17.084;2024-03-29T08:35:00;99270.63;;;11.76;46.51
84122;BME280;74217;51.106;17.084;2024-03-29T08:37:46;99264.44;;;11.90;45.36
84122;BME280;74217;51.106;17.084;2024-03-29T08:40:31;99266.75;;;11.82;47.15
84122;BME280;74217;51.106;17.084;2024-03-29T08:43:18;99274.16;;;11.89;46.63
84122;BME280;74217;51.106;17.084;2024-03-29T08:46:03;99263.47;;;12.05;45.44
84122;BME280;74217;51.106;17.084;2024-03-29T08:48:48;99255.88;;;12.13;46.24
84122;BME280;74217;51.106;17.084;2024-03-29T08:51:33;99246.63;;;12.20;46.53
84122;BME280;74217;51.106;17.084;2024-03-29T08:54:18;99245.44;;;12.38;45.84
84122;BME280;74217;51.106;17.084;2024-03-29T08:57:03;99248.19;;;12.49;44.56
84122;BME280;74217;51.106;17.084;2024-03-29T08:59:48;99247.78;;;12.55;44.85
84122;BME280;74217;51.106;17.084;2024-03-29T09:02:33;99241.88;;;12.64;43.46
84122;BME280;74217;51.106;17.084;2024-03-29T09:05:18;99244.81;;;12.72;43.51
84122;BME280;74217;51.106;17.084;2024-03-29T09:08:03;99244.41;;;12.78;44.69
84122;BME280;74217;51.106;17.084;2024-03-29T09:10:48;99249.59;;;12.92;44.43
84122;BME280;74217;51.106;17.084;2024-03-29T09:13:33;99248.59;;;13.05;42.49
84122;BME280;74217;51.106;17.084;2024-03-29T09:16:17;99240.88;;;13.15;41.92
84122;BME280;74217;51.106;17.084;2024-03-29T09:19:01;99238.25;;;13.15;41.19
84122;BME280;74217;51.106;17.084;2024-03-29T09:21:46;99230.84;;;13.20;40.74
84122;BME280;74217;51.106;17.084;2024-03-29T09:24:31;99235.34;;;13.30;41.75
84122;BME280;74217;51.106;17.084;2024-03-29T09:27:18;99223.13;;;13.42;40.30
84122;BME280;74217;51.106;17.084;2024-03-29T09:30:03;99213.78;;;13.49;40.90
84122;BME280;74217;51.106;17.084;2024-03-29T09:32:51;99224.94;;;13.65;41.68
84122;BME280;74217;51.106;17.084;2024-03-29T09:35:36;99218.13;;;13.73;37.48
84122;BME280;74217;51.106;17.084;2024-03-29T09:38:21;99217.56;;;13.81;37.24
84122;BME280;74217;51.106;17.084;2024-03-29T09:41:15;99221.97;;;13.93;36.99
84122;BME280;74217;51.106;17.084;2024-03-29T09:44:02;99208.78;;;13.80;36.72
84122;BME280;74217;51.106;17.084;2024-03-29T09:46:48;99207.78;;;13.94;36.76
84122;BME280;74217;51.106;17.084;2024-03-29T09:49:35;99211.09;;;14.08;34.97
84122;BME280;74217;51.106;17.084;2024-03-29T09:52:20;99213.13;;;14.16;34.99
84122;BME280;74217;51.106;17.084;2024-03-29T09:55:05;99202.09;;;14.22;35.90
84122;BME280;74217;51.106;17.084;2024-03-29T09:57:52;99203.88;;;14.45;33.22
84122;BME280;74217;51.106;17.084;2024-03-29T10:00:36;99203.41;;;14.51;33.74
84122;BME280;74217;51.106;17.084;2024-03-29T10:03:24;99190.22;;;14.62;33.69
84122;BME280;74217;51.106;17.084;2024-03-29T10:06:13;99189.72;;;14.68;34.08
84122;BME280;74217;51.106;17.084;2024-03-29T10:09:00;99185.75;;;14.73;33.78
84122;BME280;74217;51.106;17.084;2024-03-29T10:11:45;99195.75;;;14.70;32.64
84122;BME280;74217;51.106;17.084;2024-03-29T10:14:42;99192.28;;;14.69;33.43
84122;BME280;74217;51.106;17.084;2024-03-29T10:17:27;99202.38;;;14.75;33.00
84122;BME280;74217;51.106;17.084;2024-03-29T10:20:15;99206.34;;;14.81;33.96
84122;BME280;74217;51.106;17.084;2024-03-29T10:23:01;99200.69;;;14.85;32.64
84122;BME280;74217;51.106;17.084;2024-03-29T10:25:47;99187.22;;;14.88;33.70
84122;BME280;74217;51.106;17.084;2024-03-29T10:28:36;99185.41;;;15.00;33.34
84122;BME280;74217;51.106;17.084;2024-03-29T10:31:21;99175.28;;;15.05;33.34
84122;BME280;74217;51.106;17.084;2024-03-29T10:34:05;99172.16;;;15.00;33.70
84122;BME280;74217;51.106;17.084;2024-03-29T10:36:50;99182.28;;;15.06;33.50
84122;BME280;74217;51.106;17.084;2024-03-29T10:39:35;99175.66;;;15.00;33.78
84122;BME280;74217;51.106;17.084;2024-03-29T10:42:21;99152.03;;;15.08;33.59
84122;BME280;74217;51.106;17.084;2024-03-29T10:45:07;99154.44;;;15.22;32.84
84122;BME280;74217;51.106;17.084;2024-03-29T10:47:53;99136.25;;;15.18;34.01
84122;BME280;74217;51.106;17.084;2024-03-29T10:50:38;99129.72;;;15.22;33.89
84122;BME280;74217;51.106;17.084;2024-03-29T10:53:27;99118.78;;;15.26;34.02
84122;BME280;74217;51.106;17.084;2024-03-29T10:56:11;99118.91;;;15.36;33.29
84122;BME280;74217;51.106;17.084;2024-03-29T10:58:59;99108.97;;;15.49;33.42
84122;BME280;74217;51.106;17.084;2024-03-29T11:01:52;99127.75;;;15.46;30.75
84122;BME280;74217;51.106;17.084;2024-03-29T11:04:38;99111.91;;;15.35;32.51
84122;BME280;74217;51.106;17.084;2024-03-29T11:07:24;99121.28;;;15.28;32.10
84122;BME280;74217;51.106;17.084;2024-03-29T11:10:15;99108.06;;;15.17;32.44
84122;BME280;74217;51.106;17.084;2024-03-29T11:15:54;99103.59;;;15.06;32.90
84122;BME280;74217;51.106;17.084;2024-03-29T11:18:38;99123.97;;;15.17;31.10
84122;BME280;74217;51.106;17.084;2024-03-29T11:21:24;99112.03;;;15.33;30.72
84122;BME280;74217;51.106;17.084;2024-03-29T11:24:12;99122.63;;;15.44;31.74
84122;BME280;74217;51.106;17.084;2024-03-29T11:26:57;99115.66;;;15.64;30.16
84122;BME280;74217;51.106;17.084;2024-03-29T11:29:42;99109.13;;;15.68;30.28
84122;BME280;74217;51.106;17.084;2024-03-29T11:32:36;99099.66;;;15.86;30.36
84122;BME280;74217;51.106;17.084;2024-03-29T11:35:22;99094.53;;;15.94;29.54
84122;BME280;74217;51.106;17.084;2024-03-29T11:38:08;99105.06;;;15.84;30.07
84122;BME280;74217;51.106;17.084;2024-03-29T11:40:54;99111.75;;;15.79;30.44
84122;BME280;74217;51.106;17.084;2024-03-29T11:43:40;99118.50;;;15.72;31.99
84122;BME280;74217;51.106;17.084;2024-03-29T11:46:26;99121.38;;;15.80;31.08
84122;BME280;74217;51.106;17.084;2024-03-29T11:49:12;99118.72;;;15.80;31.37
84122;BME280;74217;51.106;17.084;2024-03-29T11:52:04;99113.44;;;15.80;31.99
84122;BME280;74217;51.106;17.084;2024-03-29T11:54:50;99109.88;;;15.90;32.17
84122;BME280;74217;51.106;17.084;2024-03-29T11:57:36;99106.50;;;16.09;31.78
84122;BME280;74217;51.106;17.084;2024-03-29T12:00:24;99089.50;;;16.32;32.28
84122;BME280;74217;51.106;17.084;2024-03-29T12:03:15;99103.69;;;16.42;31.10
84122;BME280;74217;51.106;17.084;2024-03-29T12:06:01;99088.28;;;16.66;31.12
84122;BME280;74217;51.106;17.084;2024-03-29T12:08:49;99091.88;;;16.65;31.45
84122;BME280;74217;51.106;17.084;2024-03-29T12:11:36;99077.38;;;16.69;30.44
84122;BME280;74217;51.106;17.084;2024-03-29T12:14:21;99066.19;;;16.65;31.47
84122;BME280;74217;51.106;17.084;2024-03-29T12:17:11;99063.38;;;16.67;30.65
84122;BME280;74217;51.106;17.084;2024-03-29T12:19:59;99070.81;;;16.73;31.33
84122;BME280;74217;51.106;17.084;2024-03-29T12:22:49;99069.97;;;16.72;31.10
84122;BME280;74217;51.106;17.084;2024-03-29T12:25:36;99063.72;;;16.83;32.33
84122;BME280;74217;51.106;17.084;2024-03-29T12:28:21;99063.44;;;16.86;30.81
84122;BME280;74217;51.106;17.084;2024-03-29T12:31:09;99046.97;;;16.92;30.65
84122;BME280;74217;51.106;17.084;2024-03-29T12:33:54;99051.16;;;16.94;30.91
84122;BME280;74217;51.106;17.084;2024-03-29T12:36:39;99046.59;;;17.06;31.58
84122;BME280;74217;51.106;17.084;2024-03-29T12:39:24;99034.44;;;17.13;29.77
84122;BME280;74217;51.106;17.084;2024-03-29T12:42:10;99036.69;;;17.27;31.02
84122;BME280;74217;51.106;17.084;2024-03-29T12:44:56;99038.38;;;17.37;30.32
84122;BME280;74217;51.106;17.084;2024-03-29T12:47:40;99039.78;;;17.32;30.15
84122;BME280;74217;51.106;17.084;2024-03-29T12:50:27;99045.09;;;17.51;30.89
84122;BME280;74217;51.106;17.084;2024-03-29T12:53:13;99043.13;;;17.43;28.86
84122;BME280;74217;51.106;17.084;2024-03-29T12:55:59;99034.44;;;17.32;31.37
84122;BME280;74217;51.106;17.084;2024-03-29T12:58:44;99042.00;;;17.27;32.91
84122;BME280;74217;51.106;17.084;2024-03-29T13:01:29;99039.34;;;17.27;30.28
84122;BME280;74217;51.106;17.084;2024-03-29T13:04:14;99046.59;;;17.06;30.90
84122;BME280;74217;51.106;17.084;2024-03-29T13:06:59;99050.88;;;16.97;33.03
84122;BME280;74217;51.106;17.084;2024-03-29T13:09:43;99040.53;;;16.85;33.16
84122;BME280;74217;51.106;17.084;2024-03-29T13:12:29;99037.69;;;16.77;33.24
84122;BME280;74217;51.106;17.084;2024-03-29T13:15:26;99036.88;;;16.86;31.37
84122;BME280;74217;51.106;17.084;2024-03-29T13:18:12;99029.88;;;16.85;33.25
84122;BME280;74217;51.106;17.084;2024-03-29T13:20:58;99030.28;;;16.90;31.96
84122;BME280;74217;51.106;17.084;2024-03-29T13:23:46;99018.44;;;17.03;32.28
84122;BME280;74217;51.106;17.084;2024-03-29T13:26:30;99021.38;;;16.91;32.22
84122;BME280;74217;51.106;17.084;2024-03-29T13:29:16;99021.91;;;16.85;33.79
84122;BME280;74217;51.106;17.084;2024-03-29T13:32:00;99014.75;;;16.76;33.94
84122;BME280;74217;51.106;17.084;2024-03-29T13:34:45;99015.19;;;16.81;32.65
84122;BME280;74217;51.106;17.084;2024-03-29T13:37:29;99025.66;;;16.73;34.84
84122;BME280;74217;51.106;17.084;2024-03-29T13:40:15;99029.97;;;16.64;35.97
84122;BME280;74217;51.106;17.084;2024-03-29T13:43:00;99028.97;;;16.65;34.49
84122;BME280;74217;51.106;17.084;2024-03-29T13:45:45;99035.50;;;16.52;34.79
84122;BME280;74217;51.106;17.084;2024-03-29T13:48:29;99039.81;;;16.53;33.69
84122;BME280;74217;51.106;17.084;2024-03-29T13:51:14;99033.38;;;16.46;32.75
84122;BME280;74217;51.106;17.084;2024-03-29T13:53:59;99029.44;;;16.40;33.90
84122;BME280;74217;51.106;17.084;2024-03-29T13:56:44;99017.97;;;16.40;33.75
84122;BME280;74217;51.106;17.084;2024-03-29T13:59:29;99024.84;;;16.42;35.38
84122;BME280;74217;51.106;17.084;2024-03-29T14:02:18;99026.84;;;16.50;34.68
84122;BME280;74217;51.106;17.084;2024-03-29T14:05:03;99026.13;;;16.48;34.48
84122;BME280;74217;51.106;17.084;2024-03-29T14:07:48;99030.91;;;16.54;34.79
84122;BME280;74217;51.106;17.084;2024-03-29T14:10:35;99025.84;;;16.51;35.03
84122;BME280;74217;51.106;17.084;2024-03-29T14:13:20;99024.50;;;16.56;34.74
84122;BME280;74217;51.106;17.084;2024-03-29T14:16:04;99019.13;;;16.47;34.70
84122;BME280;74217;51.106;17.084;2024-03-29T14:18:49;99013.06;;;16.35;35.70
84122;BME280;74217;51.106;17.084;2024-03-29T14:21:34;99024.13;;;16.40;34.96
84122;BME280;74217;51.106;17.084;2024-03-29T14:24:19;99016.84;;;16.33;37.35
84122;BME280;74217;51.106;17.084;2024-03-29T14:27:03;99008.16;;;16.31;37.24
84122;BME280;74217;51.106;17.084;2024-03-29T14:29:49;98998.78;;;16.06;37.08
84122;BME280;74217;51.106;17.084;2024-03-29T14:32:33;99005.84;;;16.17;36.26
84122;BME280;74217;51.106;17.084;2024-03-29T14:35:19;98990.97;;;16.05;36.68
84122;BME280;74217;51.106;17.084;2024-03-29T14:38:04;98992.31;;;15.99;36.17
84122;BME280;74217;51.106;17.084;2024-03-29T14:40:49;98990.94;;;15.95;36.65